Premium Do Brasil — A8BL4 — position and weather

sailwx.info

Track history (hours):
 
Tides and Currents Weather Stations Pressure Air Temp Water Temp Dewpoint Dewpoint Depression Visibility Wind Speed Wind Dir Waves Ship Positions

Premium Do Brasil

Last reported at 2017-Sep-22 02:01 UTC. Time now 2017-Sep-22 17:21 UTC.
Position N 51°13' E 003°48'.

Type: Other ship. MMSI: 636011792.

Date/timePositionNaut miles runAvg speedWind from/ knotsBaromVisibWave heightAir tempDewpointWater temp
2017-Sep-22 02:01N 51°13' E 003°48'3 5.0
2017-Sep-22 01:30N 51°15' E 003°49'2 4.9
2017-Sep-22 01:00N 51°17' E 003°50'2 4.8
2017-Sep-22 00:30N 51°20' E 003°49'0 0.3
2017-Sep-22 00:00N 51°20' E 003°49'1 1.2
2017-Sep-21 23:30N 51°20' E 003°49'2 3.9
2017-Sep-21 23:00N 51°22' E 003°46'4 8.7
2017-Sep-21 22:31N 51°25' E 003°42'510.2
2017-Sep-21 22:00N 51°25' E 003°34'611.5
2017-Sep-21 21:31N 51°25' E 003°25'611.5
2017-Sep-21 21:00N 51°24' E 003°16'510.9
2017-Sep-21 20:30N 51°24' E 003°07'510.2
2017-Sep-21 20:00N 51°23' E 002°59'510.4
2017-Sep-21 19:30N 51°22' E 002°51'610.7
2017-Sep-21 18:59N 51°22' E 002°42'510.0
2017-Sep-21 18:30N 51°22' E 002°34'714.3
2017-Sep-21 18:00N 51°20' E 002°23'612.3
2017-Sep-21 17:30N 51°17' E 002°14'612.4
2017-Sep-21 17:01N 51°15' E 002°06'816.8
2017-Sep-21 16:31N 51°11' E 001°54'917.7
2017-Sep-21 16:00N 51°05' E 001°43'918.6
2017-Sep-21 15:30N 50°59' E 001°33'918.2
2017-Sep-21 15:00N 50°50' E 001°27'5617.1
2017-Sep-21 11:42N 50°22' E 000°09'418.8
2017-Sep-21 11:30N 50°21' E 000°04'1219.2
2017-Sep-21 10:52N 50°18' W 000°15'10021.4
2017-Sep-21 06:11N 49°50' W 002°44'420.0
2017-Sep-21 05:58N 49°48' W 002°50'1019.7
2017-Sep-21 05:27N 49°43' W 003°05'919.5
2017-Sep-21 05:00N 49°39' W 003°16'1019.5
2017-Sep-21 04:30N 49°35' W 003°30'1119.4
2017-Sep-21 03:56N 49°29' W 003°45'1119.2
2017-Sep-21 03:21N 49°24' W 003°60'919.0
2017-Sep-21 02:53N 49°20' W 004°12'2018.7
2017-Sep-21 01:50N 49°10' W 004°38'718.4
2017-Sep-21 01:27N 49°07' W 004°47'1018.1
2017-Sep-21 00:53N 49°01' W 005°00'717.7
2017-Sep-21 00:30N 48°57' W 005°09'917.2
2017-Sep-21 00:00N 48°53' W 005°20'1017.0
2017-Sep-20 23:26N 48°48' W 005°33'716.3
2017-Sep-20 22:58N 48°43' W 005°41'  
2017-Sep-16 00:00N 16°00' W 026°12'46419.3 040 / 121018.1 5.4 26.225.928.9
2017-Sep-15 00:00N 08°36' W 028°30'24320.3 130 / 171019.4 2.2 23.623.529.1
2017-Sep-14 12:00N 04°42' W 029°36'36020.0 160 / 201016.0 5.4 28.328.028.7
2017-Sep-13 18:00S 01°00' W 031°30'10120.1 130 / 201014.6 5.4 26.725.627.4
2017-Sep-13 13:00S 02°36' W 032°00'24719.0 180 / 201017.4 5.4 27.027.027.7
2017-Sep-13 00:00S 06°30' W 033°18'11919.9 090 / 181019.0 5.4 25.624.727.4
2017-Sep-12 18:00S 08°24' W 033°54'24120.1 130 / 181018.3 5.4 26.024.027.5
2017-Sep-12 06:00S 12°00' W 032°06'   090 / 161020.1 5.4 23.819.526.8
Track history (hours):
 
Tides and Currents Weather Stations Pressure Air Temp Water Temp Dewpoint Dewpoint Depression Visibility Wind Speed Wind Dir Waves Ship Positions

Premium Do Brasil

Last reported at 2017-Sep-22 02:01 UTC. Time now 2017-Sep-22 17:21 UTC.
Position N 51°13' E 003°48'.

Type: Other ship. MMSI: 636011792.

Date/timePositionNaut miles runAvg speedWind from/ knotsBaromVisibWave heightAir tempDewpointWater temp
2017-Sep-22 02:01N 51°13' E 003°48'3 5.0
2017-Sep-22 01:30N 51°15' E 003°49'2 4.9
2017-Sep-22 01:00N 51°17' E 003°50'2 4.8
2017-Sep-22 00:30N 51°20' E 003°49'0 0.3
2017-Sep-22 00:00N 51°20' E 003°49'1 1.2
2017-Sep-21 23:30N 51°20' E 003°49'2 3.9
2017-Sep-21 23:00N 51°22' E 003°46'4 8.7
2017-Sep-21 22:31N 51°25' E 003°42'510.2
2017-Sep-21 22:00N 51°25' E 003°34'611.5
2017-Sep-21 21:31N 51°25' E 003°25'611.5
2017-Sep-21 21:00N 51°24' E 003°16'510.9
2017-Sep-21 20:30N 51°24' E 003°07'510.2
2017-Sep-21 20:00N 51°23' E 002°59'510.4
2017-Sep-21 19:30N 51°22' E 002°51'610.7
2017-Sep-21 18:59N 51°22' E 002°42'510.0
2017-Sep-21 18:30N 51°22' E 002°34'714.3
2017-Sep-21 18:00N 51°20' E 002°23'612.3
2017-Sep-21 17:30N 51°17' E 002°14'612.4
2017-Sep-21 17:01N 51°15' E 002°06'816.8
2017-Sep-21 16:31N 51°11' E 001°54'917.7
2017-Sep-21 16:00N 51°05' E 001°43'918.6
2017-Sep-21 15:30N 50°59' E 001°33'918.2
2017-Sep-21 15:00N 50°50' E 001°27'5617.1
2017-Sep-21 11:42N 50°22' E 000°09'418.8
2017-Sep-21 11:30N 50°21' E 000°04'1219.2
2017-Sep-21 10:52N 50°18' W 000°15'10021.4
2017-Sep-21 06:11N 49°50' W 002°44'420.0
2017-Sep-21 05:58N 49°48' W 002°50'1019.7
2017-Sep-21 05:27N 49°43' W 003°05'919.5
2017-Sep-21 05:00N 49°39' W 003°16'1019.5
2017-Sep-21 04:30N 49°35' W 003°30'1119.4
2017-Sep-21 03:56N 49°29' W 003°45'1119.2
2017-Sep-21 03:21N 49°24' W 003°60'919.0
2017-Sep-21 02:53N 49°20' W 004°12'2018.7
2017-Sep-21 01:50N 49°10' W 004°38'718.4
2017-Sep-21 01:27N 49°07' W 004°47'1018.1
2017-Sep-21 00:53N 49°01' W 005°00'717.7
2017-Sep-21 00:30N 48°57' W 005°09'917.2
2017-Sep-21 00:00N 48°53' W 005°20'1017.0
2017-Sep-20 23:26N 48°48' W 005°33'716.3
2017-Sep-20 22:58N 48°43' W 005°41'  
2017-Sep-16 00:00N 16°00' W 026°12'46419.3 040 / 121018.1 5.4 26.225.928.9
2017-Sep-15 00:00N 08°36' W 028°30'24320.3 130 / 171019.4 2.2 23.623.529.1
2017-Sep-14 12:00N 04°42' W 029°36'36020.0 160 / 201016.0 5.4 28.328.028.7
2017-Sep-13 18:00S 01°00' W 031°30'10120.1 130 / 201014.6 5.4 26.725.627.4
2017-Sep-13 13:00S 02°36' W 032°00'24719.0 180 / 201017.4 5.4 27.027.027.7
2017-Sep-13 00:00S 06°30' W 033°18'11919.9 090 / 181019.0 5.4 25.624.727.4
2017-Sep-12 18:00S 08°24' W 033°54'24120.1 130 / 181018.3 5.4 26.024.027.5
2017-Sep-12 06:00S 12°00' W 032°06'   090 / 161020.1 5.4 23.819.526.8

Dump ship's entire track history